createdAt,value
2017-08-05T00:01:37.593Z,65.20
2017-08-05T00:04:03.666Z,65.30
2017-08-05T00:06:29.615Z,65.50
2017-08-05T00:08:55.638Z,65.60
2017-08-05T00:11:21.630Z,65.70
2017-08-05T00:13:47.612Z,66.90
2017-08-05T00:16:13.888Z,65.60
2017-08-05T00:18:39.952Z,66.20
2017-08-05T00:21:05.907Z,66.20
2017-08-05T00:23:31.887Z,66.50
2017-08-05T00:25:57.841Z,66.40
2017-08-05T00:28:23.912Z,66.50
2017-08-05T00:30:50.096Z,66.60
2017-08-05T00:33:16.107Z,66.60
2017-08-05T00:35:43.251Z,66.40
2017-08-05T00:38:09.224Z,67.10
2017-08-05T00:40:35.273Z,66.00
2017-08-05T00:43:01.911Z,65.40
2017-08-05T00:45:27.880Z,65.10
2017-08-05T00:47:53.889Z,65.20
2017-08-05T00:50:19.935Z,65.20
2017-08-05T00:52:45.882Z,65.40
2017-08-05T00:55:12.871Z,65.60
2017-08-05T00:57:38.858Z,65.60
2017-08-05T01:00:04.880Z,65.60
2017-08-05T01:02:30.927Z,66.00
2017-08-05T01:04:56.916Z,66.10
2017-08-05T01:07:22.886Z,66.20
2017-08-05T01:09:48.864Z,66.20
2017-08-05T01:12:14.826Z,66.60
2017-08-05T01:14:40.817Z,66.50
2017-08-05T01:17:06.772Z,66.70
2017-08-05T01:19:32.712Z,66.80
2017-08-05T01:21:58.693Z,67.20
2017-08-05T01:24:24.696Z,67.60
2017-08-05T01:26:50.747Z,68.40
2017-08-05T01:29:16.787Z,69.20
2017-08-05T01:31:42.842Z,69.80
2017-08-05T01:34:08.852Z,69.90
2017-08-05T01:36:34.832Z,69.30
2017-08-05T01:39:00.784Z,69.40
2017-08-05T01:41:26.803Z,69.30
2017-08-05T01:43:52.769Z,68.90
2017-08-05T01:46:18.732Z,69.00
2017-08-05T01:48:44.684Z,68.60
2017-08-05T01:51:10.707Z,68.80
2017-08-05T01:53:36.654Z,69.00
2017-08-05T01:56:02.832Z,69.20
2017-08-05T01:58:28.804Z,68.80
2017-08-05T02:00:54.817Z,68.80
2017-08-05T02:03:20.821Z,68.80
2017-08-05T02:05:46.824Z,69.00
2017-08-05T02:08:12.847Z,69.20
2017-08-05T02:10:38.882Z,69.20
2017-08-05T02:13:04.996Z,69.60
2017-08-05T02:15:31.065Z,69.40
2017-08-05T02:17:57.028Z,69.60
2017-08-05T02:20:23.024Z,69.90
2017-08-05T02:22:48.983Z,70.00
2017-08-05T02:25:15.637Z,69.90
2017-08-05T02:27:41.676Z,69.70
2017-08-05T02:30:07.599Z,68.90
2017-08-05T02:32:33.575Z,68.90
2017-08-05T02:35:00.286Z,69.20
2017-08-05T02:37:26.219Z,69.50
2017-08-05T02:39:52.172Z,69.70
2017-08-05T02:42:18.111Z,69.60
2017-08-05T02:44:44.141Z,69.30
2017-08-05T02:47:10.173Z,69.00
2017-08-05T02:49:36.170Z,68.90
2017-08-05T02:52:02.411Z,68.70
2017-08-05T02:54:28.410Z,68.90
2017-08-05T02:56:54.437Z,68.70
2017-08-05T02:59:20.457Z,68.50
2017-08-05T03:01:46.429Z,68.80
2017-08-05T03:04:12.427Z,69.00
2017-08-05T03:06:38.398Z,69.20
2017-08-05T03:09:04.372Z,69.30
2017-08-05T03:11:30.937Z,68.90
2017-08-05T03:13:56.927Z,69.20
2017-08-05T03:16:22.927Z,69.40
2017-08-05T03:18:48.951Z,69.90
2017-08-05T03:21:14.971Z,69.80
2017-08-05T03:23:40.943Z,70.00
2017-08-05T03:26:06.916Z,70.60
2017-08-05T03:28:32.882Z,71.00
2017-08-05T03:30:59.051Z,70.60
2017-08-05T03:33:25.116Z,71.00
2017-08-05T03:35:51.055Z,71.70
2017-08-05T03:38:17.000Z,72.00
2017-08-05T03:40:42.956Z,72.50
2017-08-05T03:43:08.944Z,72.70
2017-08-05T03:45:34.908Z,72.80
2017-08-05T03:48:01.271Z,73.20
2017-08-05T03:50:27.283Z,73.20
2017-08-05T03:52:53.288Z,73.20
2017-08-05T03:55:19.312Z,73.50
2017-08-05T03:57:45.371Z,73.70
2017-08-05T04:00:12.072Z,74.20
2017-08-05T04:02:38.009Z,74.10
2017-08-05T04:05:03.952Z,74.30
2017-08-05T04:07:29.959Z,74.50
2017-08-05T04:09:55.961Z,74.70
2017-08-05T04:12:21.987Z,74.80
2017-08-05T04:14:47.927Z,74.60
2017-08-05T04:17:13.949Z,74.70
2017-08-05T04:19:39.923Z,75.00
2017-08-05T04:22:05.993Z,75.40
2017-08-05T04:24:32.019Z,75.80
2017-08-05T04:26:58.044Z,76.20
2017-08-05T04:29:24.082Z,77.10
2017-08-05T04:31:49.990Z,78.10
2017-08-05T04:34:16.936Z,78.00
2017-08-05T04:36:42.923Z,77.80
2017-08-05T04:39:09.108Z,77.40
2017-08-05T04:41:35.899Z,77.40
2017-08-05T04:44:01.867Z,77.40
2017-08-05T04:46:27.815Z,77.20
2017-08-05T04:48:53.768Z,77.10
2017-08-05T04:51:19.789Z,77.40
2017-08-05T04:53:45.728Z,77.40
2017-08-05T04:56:12.576Z,77.30
2017-08-05T04:58:38.606Z,76.80
2017-08-05T05:01:04.611Z,77.70
2017-08-05T05:03:30.589Z,76.30
2017-08-05T05:05:56.628Z,76.50
2017-08-05T05:08:22.603Z,76.00
2017-08-05T05:10:49.323Z,75.20
2017-08-05T05:13:15.352Z,74.50
2017-08-05T05:15:41.484Z,74.50
2017-08-05T05:18:07.500Z,74.90
2017-08-05T05:20:34.238Z,75.00
2017-08-05T05:23:00.205Z,75.00
2017-08-05T05:25:26.174Z,74.80
2017-08-05T05:27:52.160Z,74.20
2017-08-05T05:30:18.127Z,74.00
2017-08-05T05:32:44.102Z,74.00
2017-08-05T05:35:10.084Z,74.00
2017-08-05T05:37:36.035Z,73.60
2017-08-05T05:40:02.014Z,73.40
2017-08-05T05:42:28.700Z,73.80
2017-08-05T05:44:54.623Z,73.70
2017-08-05T05:47:20.600Z,73.80
2017-08-05T05:49:46.527Z,73.70
2017-08-05T05:52:12.484Z,73.40
2017-08-05T05:54:39.523Z,72.80
2017-08-05T05:57:05.439Z,72.20
2017-08-05T05:59:31.428Z,72.20
2017-08-05T06:01:58.027Z,72.20
2017-08-05T06:04:24.965Z,72.30
2017-08-05T06:06:50.909Z,72.40
2017-08-05T06:09:16.877Z,72.80
2017-08-05T06:11:42.815Z,72.80
2017-08-05T06:14:08.820Z,72.70
2017-08-05T06:16:34.786Z,72.70
2017-08-05T06:19:00.842Z,72.80
2017-08-05T06:21:26.791Z,72.60
2017-08-05T06:23:52.783Z,72.90
2017-08-05T06:26:18.762Z,71.80
2017-08-05T06:28:44.856Z,71.10
2017-08-05T06:31:10.798Z,70.30
2017-08-05T06:33:36.728Z,70.30
2017-08-05T06:36:02.683Z,71.00
2017-08-05T06:38:29.348Z,70.80
2017-08-05T06:40:55.284Z,70.10
2017-08-05T06:43:21.248Z,70.10
2017-08-05T06:45:48.226Z,70.50
2017-08-05T06:48:14.175Z,69.20
2017-08-05T06:50:40.118Z,69.80
2017-08-05T06:53:06.087Z,69.30
2017-08-05T06:55:32.050Z,69.50
2017-08-05T06:57:57.991Z,69.40
2017-08-05T07:00:25.850Z,69.80
2017-08-05T07:02:51.847Z,69.80
2017-08-05T07:05:17.803Z,69.80
2017-08-05T07:07:43.791Z,69.70
2017-08-05T07:10:09.845Z,69.80
2017-08-05T07:12:35.865Z,70.10
2017-08-05T07:15:01.771Z,69.90
2017-08-05T07:17:27.703Z,69.40
2017-08-05T07:19:54.479Z,69.20
2017-08-05T07:22:22.147Z,68.30
2017-08-05T07:24:48.096Z,68.40
2017-08-05T07:27:14.039Z,67.40
2017-08-05T07:29:40.059Z,66.60
2017-08-05T07:32:06.071Z,66.40
2017-08-05T07:34:32.040Z,66.40
2017-08-05T07:36:58.020Z,67.20
2017-08-05T07:39:23.961Z,66.40
2017-08-05T07:41:49.898Z,65.20
2017-08-05T07:44:15.844Z,65.00
2017-08-05T07:46:43.062Z,65.00
2017-08-05T07:49:09.151Z,65.30
2017-08-05T07:51:35.178Z,65.50
2017-08-05T07:54:01.123Z,64.40
2017-08-05T07:56:27.120Z,63.80
2017-08-05T07:58:53.093Z,63.50
2017-08-05T08:01:19.672Z,63.70
2017-08-05T08:03:45.675Z,63.60
2017-08-05T08:06:11.643Z,63.10
2017-08-05T08:08:37.702Z,62.00
2017-08-05T08:11:04.688Z,62.00
2017-08-05T08:13:30.655Z,62.00
2017-08-05T08:15:56.740Z,62.30
2017-08-05T08:18:23.903Z,60.60
2017-08-05T08:20:49.927Z,60.40
2017-08-05T08:23:15.931Z,60.60
2017-08-05T08:25:41.979Z,60.20
2017-08-05T08:28:08.096Z,59.10
2017-08-05T08:30:34.343Z,59.30
2017-08-05T08:33:00.321Z,58.90
2017-08-05T08:35:26.328Z,58.60
2017-08-05T08:37:52.299Z,58.60
2017-08-05T08:40:19.264Z,58.60
2017-08-05T08:42:45.851Z,58.90
2017-08-05T08:45:12.195Z,58.30
2017-08-05T08:47:38.260Z,59.00
2017-08-05T08:50:04.269Z,59.10
2017-08-05T08:52:30.304Z,58.30
2017-08-05T08:54:57.837Z,58.20
2017-08-05T08:57:23.855Z,58.30
2017-08-05T08:59:50.086Z,58.50
2017-08-05T09:02:16.096Z,58.50
2017-08-05T09:04:42.148Z,58.80
2017-08-05T09:07:08.149Z,59.20
2017-08-05T09:09:34.496Z,58.20
2017-08-05T09:12:00.460Z,58.50
2017-08-05T09:14:26.452Z,58.70
2017-08-05T09:16:52.443Z,58.50
2017-08-05T09:19:18.387Z,59.00
2017-08-05T09:21:44.352Z,58.60
2017-08-05T09:24:10.337Z,58.00
2017-08-05T09:26:36.352Z,58.20
2017-08-05T09:29:04.448Z,56.80
2017-08-05T09:31:30.422Z,57.80
2017-08-05T09:33:56.408Z,57.90
2017-08-05T09:36:25.873Z,58.30
2017-08-05T09:38:51.864Z,57.60
2017-08-05T09:41:17.871Z,57.50
2017-08-05T09:43:43.882Z,57.90
2017-08-05T09:46:09.876Z,58.00
2017-08-05T09:48:36.953Z,58.00
2017-08-05T09:51:02.988Z,58.10
2017-08-05T09:53:29.404Z,57.90
2017-08-05T09:55:55.440Z,58.00
2017-08-05T09:58:21.454Z,57.60
2017-08-05T10:00:47.479Z,58.20
2017-08-05T10:03:14.074Z,58.90
2017-08-05T10:05:41.099Z,59.40
2017-08-05T10:08:07.819Z,59.70
2017-08-05T10:10:33.928Z,59.70
2017-08-05T10:13:00.576Z,60.60
2017-08-05T10:15:26.590Z,61.20
2017-08-05T10:17:52.618Z,61.80
2017-08-05T10:20:18.853Z,62.40
2017-08-05T10:22:44.839Z,63.30
2017-08-05T10:25:11.763Z,64.40
2017-08-05T10:27:37.818Z,67.00
2017-08-05T10:30:03.988Z,67.80
2017-08-05T10:32:31.414Z,70.40
2017-08-05T10:34:57.413Z,70.40
2017-08-05T10:37:23.371Z,70.40
2017-08-05T10:39:49.397Z,69.50
2017-08-05T10:42:15.805Z,70.00
2017-08-05T10:44:41.734Z,70.10
2017-08-05T10:47:07.697Z,70.40
2017-08-05T10:49:34.361Z,70.40
2017-08-05T10:52:00.330Z,70.50
2017-08-05T10:54:26.312Z,71.20
2017-08-05T10:56:52.258Z,72.80
2017-08-05T10:59:18.263Z,73.50
2017-08-05T11:01:44.904Z,73.90
2017-08-05T11:04:10.952Z,74.00
2017-08-05T11:06:36.959Z,73.80
2017-08-05T11:09:03.126Z,74.40
2017-08-05T11:11:29.128Z,75.40
2017-08-05T11:13:56.149Z,75.30
2017-08-05T11:16:22.265Z,74.70
2017-08-05T11:18:48.279Z,74.00
2017-08-05T11:21:14.245Z,73.40
2017-08-05T11:23:40.245Z,72.40
2017-08-05T11:26:06.232Z,72.50
2017-08-05T11:28:32.287Z,72.60
2017-08-05T11:30:58.325Z,71.30
2017-08-05T11:33:25.533Z,71.80
2017-08-05T11:35:51.602Z,72.20
2017-08-05T11:38:17.574Z,72.50
2017-08-05T11:40:43.648Z,74.00
2017-08-05T11:43:10.421Z,75.60
2017-08-05T11:45:36.389Z,75.60
2017-08-05T11:48:02.468Z,76.80
2017-08-05T11:50:28.851Z,77.00
2017-08-05T11:52:55.917Z,77.50
2017-08-05T11:55:21.937Z,77.50
2017-08-05T11:57:48.005Z,77.30
2017-08-05T12:00:14.094Z,76.40
2017-08-05T12:02:40.114Z,76.70
2017-08-05T12:05:06.112Z,74.60
2017-08-05T12:07:32.169Z,73.10
2017-08-05T12:09:58.905Z,71.40
2017-08-05T12:12:24.921Z,71.20
2017-08-05T12:14:51.806Z,71.30
2017-08-05T12:17:17.915Z,71.20
2017-08-05T12:19:44.133Z,70.60
2017-08-05T12:22:10.170Z,70.80
2017-08-05T12:24:36.486Z,70.40
2017-08-05T12:27:02.483Z,69.40
2017-08-05T12:29:28.867Z,68.60
2017-08-05T12:31:54.895Z,69.00
2017-08-05T12:34:20.958Z,67.40
2017-08-05T12:36:48.360Z,66.10
2017-08-05T12:39:14.461Z,65.20
2017-08-05T12:41:41.278Z,65.60
2017-08-05T12:44:07.367Z,64.40
2017-08-05T12:46:33.376Z,65.20
2017-08-05T12:48:59.737Z,65.00
2017-08-05T12:51:25.779Z,64.60
2017-08-05T12:53:52.497Z,65.80
2017-08-05T12:56:18.706Z,65.10
2017-08-05T12:58:44.732Z,66.60
2017-08-05T13:01:10.851Z,67.60
2017-08-05T13:03:36.971Z,69.30
2017-08-05T13:06:03.067Z,72.90
2017-08-05T13:08:29.030Z,78.30
2017-08-05T13:10:56.313Z,81.10
2017-08-05T13:13:25.060Z,82.20
2017-08-05T13:15:51.328Z,85.60
2017-08-05T13:20:52.606Z,90.50
2017-08-05T13:23:18.618Z,92.00
2017-08-05T13:25:44.674Z,91.80
2017-08-05T13:28:11.750Z,92.40
2017-08-05T13:30:37.761Z,92.10
2017-08-05T13:33:04.164Z,91.70
2017-08-05T13:35:30.291Z,92.10
2017-08-05T13:37:56.322Z,92.60
2017-08-05T13:40:22.576Z,92.20
2017-08-05T13:42:48.559Z,92.60
2017-08-05T13:45:14.764Z,92.60
2017-08-05T13:50:13.186Z,92.50
2017-08-05T13:52:41.033Z,92.60
2017-08-05T13:57:43.277Z,91.90
2017-08-05T14:00:12.591Z,90.80
2017-08-05T14:05:10.133Z,90.60
2017-08-05T14:12:39.138Z,89.40
2017-08-05T14:15:08.697Z,83.50
2017-08-05T14:20:11.478Z,79.20
2017-08-05T14:22:37.631Z,76.70
2017-08-05T14:25:04.446Z,75.60
2017-08-05T14:27:32.509Z,75.10
2017-08-05T14:32:34.064Z,69.50
2017-08-05T14:37:34.058Z,72.50
2017-08-05T14:45:10.842Z,65.10
2017-08-05T14:47:39.315Z,57.70
2017-08-05T14:52:39.343Z,57.10
2017-08-05T15:00:18.721Z,57.30
2017-08-05T15:17:55.447Z,54.80
2017-08-05T15:20:24.054Z,53.90
2017-08-05T15:22:50.697Z,53.20
2017-08-05T15:25:17.526Z,53.60
2017-08-05T15:32:45.148Z,52.10
2017-08-05T15:35:13.120Z,51.20
2017-08-05T15:40:13.154Z,50.70
2017-08-05T15:45:09.914Z,51.70
2017-08-05T15:57:43.685Z,51.00
2017-08-05T16:02:43.507Z,49.10
2017-08-05T16:07:40.973Z,49.00
2017-08-05T16:15:11.758Z,50.40
2017-08-05T16:20:09.377Z,50.80
2017-08-05T16:22:36.754Z,51.20
2017-08-05T16:25:02.711Z,51.80
2017-08-05T16:27:28.736Z,51.60
2017-08-05T16:29:54.749Z,51.90
2017-08-05T16:32:20.786Z,52.20
2017-08-05T16:34:46.830Z,52.60
2017-08-05T16:37:13.044Z,54.50
2017-08-05T16:44:41.933Z,56.20
2017-08-05T16:49:39.826Z,57.50
2017-08-05T16:57:13.246Z,57.00
2017-08-05T16:59:42.236Z,57.60
2017-08-05T17:04:47.382Z,58.20
2017-08-05T17:12:18.189Z,60.00
2017-08-05T17:24:49.369Z,59.90
2017-08-05T17:29:49.150Z,60.30
2017-08-05T17:42:35.853Z,60.40
2017-08-05T17:52:34.759Z,59.50
2017-08-05T17:55:00.852Z,58.70
2017-08-05T17:57:30.162Z,58.20
2017-08-05T17:59:56.406Z,58.00
2017-08-05T18:02:23.199Z,57.80
2017-08-05T18:04:50.938Z,57.00
2017-08-05T18:07:17.182Z,56.40
2017-08-05T18:09:43.491Z,56.20
2017-08-05T18:12:14.521Z,55.80
2017-08-05T18:14:41.402Z,56.10
2017-08-05T18:17:07.784Z,56.20
2017-08-05T18:22:05.659Z,55.20
2017-08-05T18:24:31.743Z,53.80
2017-08-05T18:26:59.252Z,51.30
2017-08-05T18:29:26.379Z,51.50
2017-08-05T18:31:52.454Z,51.00
2017-08-05T18:36:50.364Z,51.90
2017-08-05T18:39:16.396Z,53.50
2017-08-05T18:41:42.359Z,54.70
2017-08-05T18:44:08.546Z,55.60
2017-08-05T18:46:35.284Z,55.70
2017-08-05T18:49:02.886Z,56.10
2017-08-05T18:51:29.104Z,55.90
2017-08-05T18:56:29.808Z,56.00
2017-08-05T18:58:56.637Z,55.90
2017-08-05T19:01:24.350Z,57.10
2017-08-05T19:03:50.728Z,56.80
2017-08-05T19:06:16.997Z,56.10
2017-08-05T19:08:43.917Z,56.30
2017-08-05T19:11:10.860Z,56.70
2017-08-05T19:18:41.659Z,56.60
2017-08-05T19:21:09.251Z,56.00
2017-08-05T19:23:35.348Z,56.60
2017-08-05T19:28:32.738Z,56.40
2017-08-05T19:31:00.472Z,56.90
2017-08-05T19:33:29.780Z,57.10
2017-08-05T19:35:56.449Z,57.20
2017-08-05T19:38:24.003Z,55.90
2017-08-05T19:40:51.870Z,56.00
2017-08-05T19:43:19.444Z,56.20
2017-08-05T19:45:45.791Z,56.30
2017-08-05T19:48:12.004Z,56.60
2017-08-05T19:50:38.243Z,56.90
2017-08-05T19:53:04.940Z,57.10
2017-08-05T19:55:32.392Z,57.30
2017-08-05T19:57:59.133Z,57.30
2017-08-05T20:00:25.866Z,57.00
2017-08-05T20:02:51.838Z,56.80
2017-08-05T20:05:18.733Z,56.90
2017-08-05T20:07:44.755Z,57.20
2017-08-05T20:10:10.696Z,56.90
2017-08-05T20:12:36.860Z,56.60
2017-08-05T20:15:02.912Z,56.90
2017-08-05T20:17:30.087Z,56.10
2017-08-05T20:19:58.352Z,56.70
2017-08-05T20:22:26.328Z,55.60
2017-08-05T20:24:52.684Z,55.70
2017-08-05T20:27:18.728Z,55.70
2017-08-05T20:29:44.952Z,56.00
2017-08-05T20:32:12.458Z,55.90
2017-08-05T20:34:38.489Z,55.90
2017-08-05T20:37:07.688Z,55.60
2017-08-05T20:39:33.706Z,55.70
2017-08-05T20:41:59.752Z,55.60
2017-08-05T20:44:26.425Z,55.60
2017-08-05T20:46:53.620Z,55.60
2017-08-05T20:49:19.884Z,55.90
2017-08-05T20:51:46.566Z,55.20
2017-08-05T20:54:12.782Z,55.30
2017-08-05T20:56:38.945Z,55.40
2017-08-05T20:59:06.489Z,55.60
2017-08-05T21:01:32.489Z,55.10
2017-08-05T21:06:40.228Z,55.50
2017-08-05T21:09:07.499Z,56.00
2017-08-05T21:11:33.797Z,56.30
2017-08-05T21:14:01.235Z,56.50
2017-08-05T21:16:28.260Z,56.80
2017-08-05T21:18:54.457Z,56.60
2017-08-05T21:21:21.581Z,56.80
2017-08-05T21:23:48.486Z,56.60
2017-08-05T21:26:15.385Z,56.90
2017-08-05T21:28:42.416Z,56.70
2017-08-05T21:33:40.332Z,57.00
2017-08-05T21:36:06.585Z,57.40
2017-08-05T21:38:33.804Z,57.30
2017-08-05T21:40:59.809Z,57.80
2017-08-05T21:43:31.380Z,57.30
2017-08-05T21:45:57.967Z,57.80
2017-08-05T21:48:24.317Z,58.50
2017-08-05T21:50:51.118Z,58.60
2017-08-05T21:53:18.735Z,58.60
2017-08-05T21:55:45.602Z,58.70
2017-08-05T21:58:14.964Z,58.70
2017-08-05T22:00:41.270Z,59.00
2017-08-05T22:03:07.260Z,58.90
2017-08-05T22:05:33.563Z,58.80
2017-08-05T22:08:00.465Z,59.00
2017-08-05T22:10:27.157Z,58.90
2017-08-05T22:12:54.780Z,59.00
2017-08-05T22:15:21.506Z,59.30
2017-08-05T22:17:48.275Z,59.40
2017-08-05T22:20:15.723Z,59.70
2017-08-05T22:22:43.264Z,59.50
2017-08-05T22:25:09.304Z,59.80
2017-08-05T22:27:35.466Z,59.90
2017-08-05T22:30:01.761Z,60.00
2017-08-05T22:32:28.849Z,60.60
2017-08-05T22:34:55.633Z,61.20
2017-08-05T22:37:21.860Z,61.50
2017-08-05T22:39:47.882Z,61.70
2017-08-05T22:42:13.871Z,61.60
2017-08-05T22:44:39.957Z,62.70
2017-08-05T22:47:05.985Z,62.90
2017-08-05T22:49:31.970Z,63.30
2017-08-05T22:51:57.968Z,63.60
2017-08-05T22:54:23.987Z,63.80
2017-08-05T22:56:49.959Z,64.30
2017-08-05T22:59:16.063Z,64.90
2017-08-05T23:01:42.028Z,65.20
2017-08-05T23:04:08.058Z,65.40
2017-08-05T23:06:34.082Z,66.00
2017-08-05T23:09:00.771Z,66.80
2017-08-05T23:11:26.762Z,67.00
2017-08-05T23:13:52.738Z,67.20
2017-08-05T23:16:18.807Z,67.00
2017-08-05T23:18:44.922Z,67.30
2017-08-05T23:21:11.684Z,67.40
2017-08-05T23:23:37.693Z,67.50
2017-08-05T23:26:03.880Z,68.10
2017-08-05T23:28:30.418Z,68.50
2017-08-05T23:30:56.488Z,68.80
2017-08-05T23:33:22.472Z,68.80
2017-08-05T23:35:48.520Z,69.40
2017-08-05T23:38:14.524Z,69.80
2017-08-05T23:40:40.699Z,69.70
2017-08-05T23:43:06.698Z,69.40
2017-08-05T23:45:32.650Z,69.00
2017-08-05T23:47:58.651Z,69.10
2017-08-05T23:50:24.613Z,68.90
2017-08-05T23:52:50.559Z,69.20
2017-08-05T23:55:16.569Z,69.20
2017-08-05T23:57:42.559Z,69.20
